Rutledge, MO (63563)

6:19 PM CDT on March 29, 2015 (GMT -0500)
Cedar Kahoka | | Change Station
CLOSE
Current Station
Personal Weather Station
Location: Kahoka, MO
Elevation: 705 ft
Nearby Weather Stations

Elev 705 ft 40.42 °N, 91.73 °W | Updated 14 minutes ago

Overcast
Overcast
59.4 °F
Feels Like 59.4 °F
N
16.1
Wind Variable Wind from North

Today
High -- | Low -- °F
--% Chance of Precip.
Yesterday
High -- | Low -- °F
Precip. -- in
6:57 AM 7:29 PM
Waxing Gibbous, 75% visible
Pressure 29.98 in
Visibility 10.0 miles
Clouds Few 5000 ft
Dew Point 41 °F
Humidity 51%
Rainfall 0.09 in
Snow Depth Not available.
UV 1 out of 12
Pollen 5.20 out of 12
Air Quality Not available.
Flu Activity Not available.
METAR KIRK 292255Z AUTO 32017G25KT 10SM FEW050 16/05 A2996 RMK AO2 PK WND 32027/2238 RAE09B40E52 SLP150 P0000 T01560050 TSNO

More Conditions Fewer Conditions

Pressure 29.98 in
Visibility 10.0 miles
Clouds Few 5000 ft
Dew Point 41 °F
Humidity 51%
Rainfall 0.09 in
Snow Depth Not available.
UV 1 out of 12
Pollen 5.20 out of 12
Air Quality Not available.
Flu Activity Not available.
METAR KIRK 292255Z AUTO 32017G25KT 10SM FEW050 16/05 A2996 RMK AO2 PK WND 32027/2238 RAE09B40E52 SLP150 P0000 T01560050 TSNO

More Conditions Fewer Conditions

10-Day Weather Forecast

Almanac

Astronomy

Mar. 29, 2015 Rise Set
Actual Time
Civil Twilight
Nautical Twilight
Astronomical Twilight
Moon
Length of Visible Light
Length of Day
Tomorrow will be .
, % of the Moon is Illuminated

Today's Extremes

State Highs State Lows

Community

WunderPhotos

Upload Photos

1,809,378 photos uploaded!

WunderBlogs® & News

Nearby

Air Quality

  Air Quality AQ Index Pollutant
Not available.

Snow Depth

Station Depth Elevation

Earthquake Activity

City Distance Mag. Time & Date
Minimum magnitude displayed is 2.5.

Coastal Water Temperatures

Place Temperature

Stations

Nearby Weather Stations

Station Location Temp. Windchill Dew Point Humidity Wind Precip. Elev Updated Type